createdAt,value
2023-02-07T00:01:22.731Z,74.53
2023-02-07T00:03:49.617Z,64.68
2023-02-07T00:06:25.904Z,62.30
2023-02-07T00:08:52.877Z,67.05
2023-02-07T00:11:23.124Z,74.00
2023-02-07T00:13:53.070Z,63.85
2023-02-07T00:16:20.588Z,75.28
2023-02-07T00:18:47.649Z,87.10
2023-02-07T00:21:17.159Z,88.45
2023-02-07T00:23:44.944Z,81.70
2023-02-07T00:26:13.509Z,77.47
2023-02-07T00:28:40.165Z,70.75
2023-02-07T00:31:16.518Z,71.28
2023-02-07T00:33:45.007Z,71.80
2023-02-07T00:36:14.817Z,69.85
2023-02-07T00:38:41.720Z,76.80
2023-02-07T00:41:09.000Z,77.95
2023-02-07T00:43:35.781Z,78.35
2023-02-07T00:46:05.561Z,77.97
2023-02-07T00:48:33.012Z,81.60
2023-02-07T00:51:00.596Z,80.53
2023-02-07T00:53:28.468Z,93.18
2023-02-07T00:55:55.320Z,81.88
2023-02-07T00:58:22.089Z,89.60
2023-02-07T01:00:49.431Z,83.60
2023-02-07T01:03:16.388Z,88.45
2023-02-07T01:05:43.168Z,89.78
2023-02-07T01:08:09.829Z,82.53
2023-02-07T01:10:38.801Z,84.95
2023-02-07T01:13:05.335Z,81.95
2023-02-07T01:15:32.286Z,85.70
2023-02-07T01:17:58.866Z,84.03
2023-02-07T01:20:25.494Z,82.78
2023-02-07T01:22:52.694Z,86.40
2023-02-07T01:25:19.288Z,90.63
2023-02-07T01:27:45.917Z,84.80
2023-02-07T01:30:13.032Z,91.45
2023-02-07T01:32:39.584Z,93.05
2023-02-07T01:35:06.699Z,92.15
2023-02-07T01:37:33.550Z,85.60
2023-02-07T01:40:00.718Z,88.88
2023-02-07T01:42:28.805Z,88.03
2023-02-07T01:44:55.306Z,92.45
2023-02-07T01:47:23.456Z,91.55
2023-02-07T01:49:53.033Z,91.18
2023-02-07T01:52:29.517Z,97.60
2023-02-07T01:55:01.433Z,92.90
2023-02-07T01:57:28.610Z,95.18
2023-02-07T01:59:58.336Z,96.85
2023-02-07T02:02:30.919Z,87.65
2023-02-07T02:04:59.074Z,76.47
2023-02-07T02:07:28.687Z,78.32
2023-02-07T02:09:55.467Z,78.50
2023-02-07T02:12:43.530Z,78.45
2023-02-07T02:15:16.005Z,74.13
2023-02-07T02:17:57.914Z,82.22
2023-02-07T02:20:55.110Z,78.85
2023-02-07T02:23:48.989Z,69.75
2023-02-07T02:26:27.611Z,67.25
2023-02-07T02:29:07.392Z,64.13
2023-02-07T02:32:09.455Z,69.25
2023-02-07T02:34:47.876Z,55.92
2023-02-07T02:37:54.189Z,60.60
2023-02-07T02:40:34.208Z,56.10
2023-02-07T02:43:46.627Z,48.97
2023-02-07T02:46:25.393Z,46.50
2023-02-07T02:48:53.557Z,52.03
2023-02-07T02:51:20.168Z,69.70
2023-02-07T02:53:57.844Z,86.53
2023-02-07T02:56:27.140Z,86.57
2023-02-07T02:59:05.879Z,103.82
2023-02-07T03:01:38.521Z,93.28
2023-02-07T03:04:34.277Z,89.35
2023-02-07T03:07:19.141Z,93.03
2023-02-07T03:10:00.195Z,90.28
2023-02-07T03:12:48.080Z,92.70
2023-02-07T03:15:35.729Z,96.05
2023-02-07T03:18:11.814Z,101.50
2023-02-07T03:20:52.839Z,105.13
2023-02-07T03:23:21.367Z,102.30
2023-02-07T03:25:51.690Z,107.50
2023-02-07T03:28:20.701Z,129.93
2023-02-07T03:30:51.285Z,117.35
2023-02-07T03:33:19.338Z,119.70
2023-02-07T03:35:56.793Z,114.10
2023-02-07T03:38:24.453Z,112.95
2023-02-07T03:41:03.245Z,114.30
2023-02-07T03:43:32.404Z,107.35
2023-02-07T03:45:59.541Z,120.90
2023-02-07T03:48:26.191Z,122.47
2023-02-07T03:50:52.999Z,112.18
2023-02-07T03:53:21.020Z,111.05
2023-02-07T03:55:47.817Z,102.10
2023-02-07T03:58:14.574Z,79.32
2023-02-07T04:00:41.213Z,77.50
2023-02-07T04:03:07.801Z,67.15
2023-02-07T04:05:34.727Z,107.50
2023-02-07T04:08:01.421Z,117.93
2023-02-07T04:10:28.155Z,125.38
2023-02-07T04:12:54.740Z,117.50
2023-02-07T04:15:21.490Z,119.70
2023-02-07T04:17:48.051Z,126.70
2023-02-07T04:20:14.768Z,140.80
2023-02-07T04:22:41.361Z,141.07
2023-02-07T04:25:08.386Z,130.63
2023-02-07T04:27:34.996Z,133.70
2023-02-07T04:30:01.596Z,141.27
2023-02-07T04:32:28.215Z,153.05
2023-02-07T04:34:54.854Z,196.40
2023-02-07T04:37:21.412Z,148.85
2023-02-07T04:39:48.056Z,167.40
2023-02-07T04:42:14.625Z,137.18
2023-02-07T04:44:41.191Z,88.30
2023-02-07T04:47:07.773Z,131.65
2023-02-07T04:49:34.860Z,91.82
2023-02-07T04:52:01.653Z,82.15
2023-02-07T04:54:28.287Z,111.72
2023-02-07T04:56:54.904Z,154.73
2023-02-07T04:59:21.477Z,164.88
2023-02-07T05:01:48.032Z,168.43
2023-02-07T05:04:15.951Z,166.07
2023-02-07T05:06:43.037Z,163.95
2023-02-07T05:09:09.606Z,148.00
2023-02-07T05:11:36.233Z,160.02
2023-02-07T05:14:02.808Z,102.28
2023-02-07T05:16:29.453Z,131.88
2023-02-07T05:18:56.033Z,138.27
2023-02-07T05:21:22.701Z,121.38
2023-02-07T05:23:49.330Z,132.15
2023-02-07T05:26:17.177Z,80.28
2023-02-07T05:28:44.147Z,92.32
2023-02-07T05:31:10.857Z,84.32
2023-02-07T05:33:37.472Z,66.97
2023-02-07T05:36:05.102Z,69.65
2023-02-07T05:38:32.727Z,77.22
2023-02-07T05:40:59.850Z,104.50
2023-02-07T05:43:26.515Z,90.25
2023-02-07T05:45:53.092Z,99.57
2023-02-07T05:48:19.694Z,91.70
2023-02-07T05:50:46.285Z,80.80
2023-02-07T05:53:13.069Z,93.38
2023-02-07T05:55:40.045Z,82.82
2023-02-07T05:58:06.814Z,89.07
2023-02-07T06:00:33.753Z,88.95
2023-02-07T06:03:00.319Z,102.20
2023-02-07T06:05:31.630Z,82.88
2023-02-07T06:07:58.517Z,84.10
2023-02-07T06:10:25.246Z,76.22
2023-02-07T06:12:51.825Z,79.32
2023-02-07T06:15:18.619Z,109.97
2023-02-07T06:17:45.223Z,89.60
2023-02-07T06:20:12.199Z,90.93
2023-02-07T06:22:39.002Z,95.45
2023-02-07T06:25:05.969Z,94.97
2023-02-07T06:27:32.547Z,95.68
2023-02-07T06:29:59.094Z,122.68
2023-02-07T06:32:25.784Z,129.02
2023-02-07T06:34:52.456Z,130.75
2023-02-07T06:37:19.020Z,137.45
2023-02-07T06:39:45.595Z,130.98
2023-02-07T06:42:12.304Z,134.73
2023-02-07T06:44:38.829Z,124.95
2023-02-07T06:47:05.548Z,148.18
2023-02-07T06:49:32.255Z,159.30
2023-02-07T06:51:58.937Z,199.63
2023-02-07T06:54:25.502Z,197.73
2023-02-07T06:56:52.073Z,176.82
2023-02-07T06:59:18.682Z,228.63
2023-02-07T07:01:46.774Z,228.82
2023-02-07T07:04:14.522Z,204.82
2023-02-07T07:06:41.439Z,201.05
2023-02-07T07:09:08.029Z,206.75
2023-02-07T07:11:35.507Z,150.93
2023-02-07T07:14:02.704Z,185.73
2023-02-07T07:16:29.387Z,197.00
2023-02-07T07:18:55.954Z,202.32
2023-02-07T07:21:22.550Z,232.18
2023-02-07T07:23:49.131Z,184.57
2023-02-07T07:26:15.799Z,179.90
2023-02-07T07:28:42.372Z,181.10
2023-02-07T07:31:09.387Z,181.95
2023-02-07T07:33:36.879Z,172.60
2023-02-07T07:36:04.156Z,180.88
2023-02-07T07:38:31.553Z,191.32
2023-02-07T07:40:58.815Z,202.13
2023-02-07T07:43:25.873Z,155.13
2023-02-07T07:45:57.432Z,98.13
2023-02-07T07:48:24.684Z,81.00
2023-02-07T07:50:52.186Z,67.65
2023-02-07T07:53:19.765Z,64.50
2023-02-07T07:55:55.208Z,65.57
2023-02-07T07:58:23.348Z,59.00
2023-02-07T08:00:50.447Z,81.97
2023-02-07T08:03:19.226Z,88.75
2023-02-07T08:05:46.962Z,64.65
2023-02-07T08:08:14.222Z,54.95
2023-02-07T08:10:41.337Z,54.67
2023-02-07T08:13:08.545Z,56.22
2023-02-07T08:15:35.142Z,54.28
2023-02-07T08:18:01.771Z,53.58
2023-02-07T08:20:28.497Z,52.35
2023-02-07T08:22:55.040Z,50.78
2023-02-07T08:25:21.572Z,53.30
2023-02-07T08:27:48.190Z,52.78
2023-02-07T08:30:15.770Z,53.65
2023-02-07T08:32:42.745Z,62.22
2023-02-07T08:35:09.723Z,65.75
2023-02-07T08:37:36.653Z,62.40
2023-02-07T08:40:05.270Z,65.03
2023-02-07T08:42:31.943Z,77.60
2023-02-07T08:44:58.538Z,86.13
2023-02-07T08:47:25.349Z,92.13
2023-02-07T08:49:51.982Z,98.88
2023-02-07T08:52:18.624Z,102.03
2023-02-07T08:54:45.237Z,104.88
2023-02-07T08:57:11.888Z,104.45
2023-02-07T08:59:38.463Z,104.70
2023-02-07T09:02:05.113Z,103.00
2023-02-07T09:04:31.676Z,103.53
2023-02-07T09:06:58.357Z,106.90
2023-02-07T09:09:25.212Z,110.00
2023-02-07T09:11:51.922Z,110.82
2023-02-07T09:14:18.758Z,109.18
2023-02-07T09:16:45.455Z,113.63
2023-02-07T09:19:12.082Z,113.18
2023-02-07T09:21:38.771Z,78.22
2023-02-07T09:24:05.548Z,54.80
2023-02-07T09:26:34.360Z,55.38
2023-02-07T09:29:01.081Z,47.22
2023-02-07T09:31:28.199Z,44.17
2023-02-07T09:33:54.850Z,35.28
2023-02-07T09:36:24.814Z,33.92
2023-02-07T09:38:51.789Z,30.02
2023-02-07T09:41:47.366Z,26.63
2023-02-07T09:44:17.178Z,25.55
2023-02-07T09:46:52.191Z,26.05
2023-02-07T09:49:35.686Z,26.65
2023-02-07T09:52:05.693Z,26.83
2023-02-07T09:54:42.190Z,25.98
2023-02-07T09:57:16.517Z,26.73
2023-02-07T09:59:49.640Z,28.10
2023-02-07T10:02:25.103Z,26.83
2023-02-07T10:04:56.673Z,25.75
2023-02-07T10:07:23.648Z,27.45
2023-02-07T10:09:50.233Z,28.73
2023-02-07T10:12:42.751Z,26.00
2023-02-07T10:15:20.259Z,27.50
2023-02-07T10:18:17.361Z,26.98
2023-02-07T10:20:55.377Z,25.75
2023-02-07T10:23:39.625Z,26.05
2023-02-07T10:26:36.864Z,27.55
2023-02-07T10:29:18.098Z,28.05
2023-02-07T10:31:49.113Z,27.15
2023-02-07T10:34:21.871Z,28.15
2023-02-07T10:36:51.011Z,27.85
2023-02-07T10:39:39.332Z,27.88
2023-02-07T10:42:05.953Z,28.30
2023-02-07T10:44:32.946Z,27.85
2023-02-07T10:47:02.163Z,28.25
2023-02-07T10:49:32.009Z,29.70
2023-02-07T10:52:10.689Z,28.10
2023-02-07T10:54:54.242Z,27.25
2023-02-07T10:57:22.028Z,24.80
2023-02-07T10:59:50.634Z,25.90
2023-02-07T11:02:29.346Z,25.20
2023-02-07T11:04:57.200Z,26.70
2023-02-07T11:07:25.070Z,25.95
2023-02-07T11:09:51.682Z,26.45
2023-02-07T11:12:22.698Z,25.58
2023-02-07T11:15:02.693Z,26.17
2023-02-07T11:17:29.838Z,25.52
2023-02-07T11:19:57.074Z,27.13
2023-02-07T11:22:24.879Z,27.67
2023-02-07T11:25:00.261Z,26.73
2023-02-07T11:27:27.449Z,27.40
2023-02-07T11:30:00.194Z,28.38
2023-02-07T11:32:28.503Z,27.05
2023-02-07T11:35:06.460Z,26.83
2023-02-07T11:37:38.938Z,27.42
2023-02-07T11:40:31.310Z,27.50
2023-02-07T11:43:12.940Z,26.33
2023-02-07T11:45:46.425Z,27.67
2023-02-07T11:48:24.301Z,27.98
2023-02-07T11:50:56.080Z,28.60
2023-02-07T11:53:27.102Z,27.83
2023-02-07T11:55:55.525Z,28.33
2023-02-07T11:58:41.205Z,27.45
2023-02-07T12:01:08.703Z,27.27
2023-02-07T12:03:45.083Z,26.75
2023-02-07T12:06:18.187Z,27.45
2023-02-07T12:08:45.829Z,27.75
2023-02-07T12:11:38.223Z,28.48
2023-02-07T12:14:21.053Z,27.75
2023-02-07T12:16:55.051Z,28.33
2023-02-07T12:19:28.257Z,27.83
2023-02-07T12:22:18.077Z,26.55
2023-02-07T12:25:14.097Z,27.33
2023-02-07T12:27:44.917Z,27.67
2023-02-07T12:30:26.153Z,27.80
2023-02-07T12:32:55.424Z,28.05
2023-02-07T12:35:51.946Z,26.77
2023-02-07T12:38:26.542Z,26.65
2023-02-07T12:41:12.684Z,27.98
2023-02-07T12:43:46.051Z,27.63
2023-02-07T12:46:29.246Z,26.45
2023-02-07T12:49:04.446Z,27.00
2023-02-07T12:52:03.918Z,27.00
2023-02-07T12:55:09.214Z,27.30
2023-02-07T12:57:45.478Z,24.85
2023-02-07T13:00:27.076Z,26.65
2023-02-07T13:03:33.228Z,26.23
2023-02-07T13:06:30.716Z,26.55
2023-02-07T13:09:10.007Z,25.63
2023-02-07T13:12:09.005Z,24.52
2023-02-07T13:15:21.721Z,25.38
2023-02-07T13:18:02.105Z,24.20
2023-02-07T13:20:40.591Z,24.27
2023-02-07T13:23:21.348Z,24.05
2023-02-07T13:25:53.288Z,24.33
2023-02-07T13:28:26.590Z,23.95
2023-02-07T13:30:54.401Z,24.75
2023-02-07T13:33:34.924Z,24.95
2023-02-07T13:36:28.178Z,25.80
2023-02-07T13:38:59.255Z,24.70
2023-02-07T13:41:36.858Z,26.02
2023-02-07T13:44:11.080Z,23.65
2023-02-07T13:47:15.864Z,26.77
2023-02-07T13:49:58.790Z,24.80
2023-02-07T13:52:34.799Z,23.88
2023-02-07T13:55:38.614Z,25.63
2023-02-07T13:58:53.154Z,25.17
2023-02-07T14:01:32.397Z,26.33
2023-02-07T14:04:06.798Z,26.17
2023-02-07T14:09:17.464Z,24.65
2023-02-07T14:11:55.981Z,25.48
2023-02-07T14:14:25.220Z,26.88
2023-02-07T14:16:57.974Z,26.50
2023-02-07T14:19:54.737Z,25.98
2023-02-07T14:22:48.775Z,27.85
2023-02-07T14:25:39.512Z,26.13
2023-02-07T14:28:09.473Z,27.15
2023-02-07T14:30:49.656Z,27.00
2023-02-07T14:33:36.498Z,26.85
2023-02-07T14:36:17.271Z,25.95
2023-02-07T14:39:18.800Z,28.33
2023-02-07T14:41:48.078Z,28.58
2023-02-07T14:44:23.532Z,28.77
2023-02-07T14:46:56.033Z,28.30
2023-02-07T14:49:29.259Z,28.48
2023-02-07T14:52:11.254Z,29.45
2023-02-07T14:54:53.002Z,30.63
2023-02-07T14:57:56.529Z,30.00
2023-02-07T15:00:49.287Z,29.48
2023-02-07T15:03:21.371Z,28.85
2023-02-07T15:06:01.817Z,28.73
2023-02-07T15:08:32.511Z,29.60
2023-02-07T15:11:05.364Z,29.27
2023-02-07T15:13:39.190Z,28.42
2023-02-07T15:16:06.850Z,28.53
2023-02-07T15:18:42.564Z,28.33
2023-02-07T15:21:34.752Z,28.23
2023-02-07T15:24:27.284Z,28.63
2023-02-07T15:26:58.350Z,29.10
2023-02-07T15:29:28.872Z,31.65
2023-02-07T15:31:55.802Z,30.83
2023-02-07T15:34:31.695Z,30.48
2023-02-07T15:37:05.336Z,30.48
2023-02-07T15:39:32.052Z,31.92
2023-02-07T15:41:58.878Z,31.00
2023-02-07T15:44:30.496Z,30.27
2023-02-07T15:47:02.375Z,28.90
2023-02-07T15:49:34.736Z,28.25
2023-02-07T15:52:25.105Z,28.77
2023-02-07T15:54:54.459Z,29.60
2023-02-07T15:57:29.482Z,28.83
2023-02-07T16:00:02.150Z,27.42
2023-02-07T16:02:31.735Z,27.45
2023-02-07T16:05:16.512Z,27.08
2023-02-07T16:07:47.792Z,27.17
2023-02-07T16:10:20.404Z,29.05
2023-02-07T16:12:53.031Z,28.90
2023-02-07T16:15:30.418Z,27.23
2023-02-07T16:17:57.046Z,25.40
2023-02-07T16:20:24.891Z,26.00
2023-02-07T16:22:52.190Z,29.40
2023-02-07T16:25:26.379Z,27.45
2023-02-07T16:27:53.354Z,28.17
2023-02-07T16:30:24.903Z,30.60
2023-02-07T16:32:51.506Z,27.45
2023-02-07T16:35:21.127Z,29.23
2023-02-07T16:37:48.232Z,27.80
2023-02-07T16:40:15.263Z,27.38
2023-02-07T16:42:42.456Z,25.13
2023-02-07T16:45:21.875Z,29.08
2023-02-07T16:47:48.636Z,26.35
2023-02-07T16:50:20.909Z,28.15
2023-02-07T16:52:52.078Z,29.17
2023-02-07T16:55:20.699Z,27.00
2023-02-07T16:57:49.191Z,26.02
2023-02-07T17:00:26.567Z,28.60
2023-02-07T17:02:53.933Z,26.17
2023-02-07T17:05:24.079Z,25.23
2023-02-07T17:07:51.165Z,25.58
2023-02-07T17:10:31.412Z,28.00
2023-02-07T17:12:58.092Z,26.50
2023-02-07T17:15:24.665Z,27.98
2023-02-07T17:17:53.185Z,29.15
2023-02-07T17:20:26.880Z,28.95
2023-02-07T17:22:54.008Z,27.65
2023-02-07T17:25:22.299Z,26.05
2023-02-07T17:27:48.954Z,25.38
2023-02-07T17:30:33.373Z,30.92
2023-02-07T17:32:59.952Z,27.85
2023-02-07T17:35:26.517Z,30.25
2023-02-07T17:37:53.600Z,29.45
2023-02-07T17:40:20.078Z,28.42
2023-02-07T17:42:46.656Z,30.50
2023-02-07T17:45:13.210Z,30.58
2023-02-07T17:47:39.828Z,29.08
2023-02-07T17:50:08.119Z,33.35
2023-02-07T17:52:35.002Z,28.20
2023-02-07T17:55:01.538Z,32.53
2023-02-07T17:57:28.092Z,32.95
2023-02-07T17:59:54.669Z,34.25
2023-02-07T18:02:21.274Z,33.67
2023-02-07T18:04:47.836Z,33.10
2023-02-07T18:07:14.672Z,31.92
2023-02-07T18:09:41.299Z,36.78
2023-02-07T18:12:08.104Z,32.58
2023-02-07T18:14:34.683Z,35.25
2023-02-07T18:17:01.296Z,37.22
2023-02-07T18:19:28.177Z,36.30
2023-02-07T18:21:54.820Z,35.30
2023-02-07T18:24:22.164Z,33.20
2023-02-07T18:26:48.997Z,33.50
2023-02-07T18:29:16.613Z,34.60
2023-02-07T18:31:43.740Z,34.75
2023-02-07T18:34:10.485Z,33.42
2023-02-07T18:36:40.662Z,36.20
2023-02-07T18:39:09.306Z,34.67
2023-02-07T18:41:36.653Z,35.67
2023-02-07T18:44:03.941Z,36.05
2023-02-07T18:46:31.999Z,36.78
2023-02-07T18:48:59.220Z,37.08
2023-02-07T18:51:27.026Z,38.13
2023-02-07T18:53:56.768Z,40.47
2023-02-07T18:56:25.698Z,43.55
2023-02-07T18:58:53.216Z,45.42
2023-02-07T19:01:20.862Z,44.33
2023-02-07T19:03:54.441Z,48.13
2023-02-07T19:06:23.151Z,50.78
2023-02-07T19:08:50.215Z,54.90
2023-02-07T19:11:17.267Z,57.05
2023-02-07T19:13:43.973Z,57.78
2023-02-07T19:16:16.015Z,57.42
2023-02-07T19:18:42.571Z,59.42
2023-02-07T19:21:12.313Z,59.80
2023-02-07T19:23:39.989Z,62.47
2023-02-07T19:26:07.470Z,61.40
2023-02-07T19:28:35.592Z,64.57
2023-02-07T19:31:07.323Z,61.25
2023-02-07T19:33:35.620Z,63.17
2023-02-07T19:36:11.195Z,65.82
2023-02-07T19:38:38.588Z,65.15
2023-02-07T19:41:06.425Z,66.00
2023-02-07T19:43:33.660Z,64.85
2023-02-07T19:46:00.299Z,62.28
2023-02-07T19:48:27.342Z,64.63
2023-02-07T19:51:00.554Z,92.82
2023-02-07T19:53:28.655Z,82.28
2023-02-07T19:56:02.037Z,88.28
2023-02-07T19:58:30.305Z,94.68
2023-02-07T20:00:57.928Z,112.82
2023-02-07T20:03:25.653Z,136.75
2023-02-07T20:05:53.051Z,139.68
2023-02-07T20:08:20.767Z,144.63
2023-02-07T20:10:48.447Z,143.25
2023-02-07T20:13:15.980Z,136.65
2023-02-07T20:15:47.188Z,128.25
2023-02-07T20:18:14.210Z,138.15
2023-02-07T20:20:47.149Z,139.88
2023-02-07T20:23:14.729Z,138.33
2023-02-07T20:25:41.393Z,148.23
2023-02-07T20:28:08.738Z,147.02
2023-02-07T20:30:36.324Z,153.45
2023-02-07T20:33:03.002Z,147.65
2023-02-07T20:35:29.622Z,152.02
2023-02-07T20:37:56.764Z,151.32
2023-02-07T20:40:23.345Z,145.75
2023-02-07T20:42:49.909Z,144.93
2023-02-07T20:45:16.844Z,139.73
2023-02-07T20:47:43.464Z,143.80
2023-02-07T20:50:10.102Z,151.93
2023-02-07T20:52:39.766Z,151.73
2023-02-07T20:55:07.017Z,156.85
2023-02-07T20:57:33.532Z,141.10
2023-02-07T21:00:00.117Z,134.07
2023-02-07T21:02:26.758Z,135.57
2023-02-07T21:04:53.362Z,133.95
2023-02-07T21:07:19.932Z,129.65
2023-02-07T21:09:46.594Z,129.05
2023-02-07T21:12:13.296Z,133.93
2023-02-07T21:14:40.531Z,127.20
2023-02-07T21:17:07.490Z,123.47
2023-02-07T21:19:35.792Z,129.80
2023-02-07T21:22:02.505Z,122.50
2023-02-07T21:24:29.119Z,130.75
2023-02-07T21:26:56.196Z,126.30
2023-02-07T21:29:23.336Z,140.82
2023-02-07T21:31:50.813Z,123.70
2023-02-07T21:34:21.116Z,116.97
2023-02-07T21:36:49.148Z,119.43
2023-02-07T21:39:16.629Z,113.70
2023-02-07T21:41:44.987Z,105.53
2023-02-07T21:44:13.049Z,106.90
2023-02-07T21:46:41.801Z,103.38
2023-02-07T21:49:14.586Z,99.03
2023-02-07T21:51:45.660Z,105.15
2023-02-07T21:54:12.248Z,113.60
2023-02-07T21:56:40.966Z,97.68
2023-02-07T21:59:14.094Z,92.13
2023-02-07T22:01:41.282Z,88.18
2023-02-07T22:04:12.237Z,86.05
2023-02-07T22:06:43.296Z,79.70
2023-02-07T22:09:13.367Z,81.78
2023-02-07T22:11:40.566Z,79.72
2023-02-07T22:14:07.290Z,80.75
2023-02-07T22:16:34.934Z,89.45
2023-02-07T22:19:04.181Z,83.15
2023-02-07T22:21:33.661Z,83.75
2023-02-07T22:24:00.701Z,85.55
2023-02-07T22:26:28.524Z,101.85
2023-02-07T22:28:57.395Z,101.47
2023-02-07T22:31:26.982Z,102.93
2023-02-07T22:33:55.034Z,100.25
2023-02-07T22:36:24.953Z,108.70
2023-02-07T22:38:51.506Z,90.03
2023-02-07T22:41:18.329Z,87.22
2023-02-07T22:43:45.072Z,88.47
2023-02-07T22:46:15.339Z,77.47
2023-02-07T22:48:42.300Z,71.53
2023-02-07T22:51:14.696Z,70.07
2023-02-07T22:53:41.952Z,70.20
2023-02-07T22:56:09.403Z,78.95
2023-02-07T22:58:36.900Z,76.18
2023-02-07T23:01:05.111Z,74.63
2023-02-07T23:03:32.375Z,73.22
2023-02-07T23:06:03.989Z,71.97
2023-02-07T23:08:30.645Z,66.07
2023-02-07T23:10:57.223Z,64.00
2023-02-07T23:13:23.851Z,67.65
2023-02-07T23:15:50.388Z,67.13
2023-02-07T23:18:16.976Z,66.10
2023-02-07T23:20:44.888Z,69.15
2023-02-07T23:23:12.619Z,70.57
2023-02-07T23:25:43.872Z,73.93
2023-02-07T23:28:10.859Z,70.40
2023-02-07T23:30:37.974Z,71.75
2023-02-07T23:33:06.307Z,72.95
2023-02-07T23:35:33.440Z,69.03
2023-02-07T23:38:01.797Z,77.07
2023-02-07T23:40:29.542Z,73.82
2023-02-07T23:42:56.249Z,78.25
2023-02-07T23:45:22.950Z,81.25
2023-02-07T23:47:49.549Z,84.97
2023-02-07T23:50:16.239Z,81.60
2023-02-07T23:52:42.805Z,80.55
2023-02-07T23:55:09.362Z,86.45
2023-02-07T23:57:36.053Z,82.50
